Time;durP1;ratioP1;P1;durP2;ratioP2;P2;SDS_P1;SDS_P2;PMS_P1;PMS_P2;Temp;Humidity;BMP_temperature;BMP_pressure;BME280_temperature;BME280_humidity;BME280_pressure;Samples;Min_cycle;Max_cycle;Signal;HPM_P1;HPM_P2
2023/05/17 00:00:48;;;;;;;3.30;1.70;;;;;;;;;;5072469;28;20748;-54
2023/05/17 00:03:15;;;;;;;4.50;1.50;;;;;;;;;;5066245;28;20234;-54
2023/05/17 00:05:41;;;;;;;2.60;1.50;;;;;;;;;;5066415;28;20258;-52
2023/05/17 00:08:08;;;;;;;3.47;1.47;;;;;;;;;;5065221;28;20251;-52
2023/05/17 00:10:34;;;;;;;3.30;1.70;;;;;;;;;;5080283;28;20287;-52
2023/05/17 00:13:01;;;;;;;4.63;1.83;;;;;;;;;;5072104;28;20239;-52
2023/05/17 00:15:32;;;;;;;4.03;2.10;;;;;;;;;;5047739;28;20244;-53
2023/05/17 00:17:59;;;;;;;5.13;1.70;;;;;;;;;;5043791;28;20227;-56
2023/05/17 00:20:26;;;;;;;4.70;2.03;;;;;;;;;;5059918;28;20264;-51
2023/05/17 00:22:53;;;;;;;3.97;1.50;;;;;;;;;;5067095;28;20323;-52
2023/05/17 00:25:20;;;;;;;4.23;2.03;;;;;;;;;;5066052;28;20242;-52
2023/05/17 00:27:46;;;;;;;5.13;2.10;;;;;;;;;;5056797;28;20236;-53
2023/05/17 00:30:13;;;;;;;2.73;1.80;;;;;;;;;;5047615;28;20603;-54
2023/05/17 00:32:41;;;;;;;2.53;1.60;;;;;;;;;;5067006;28;20231;-53
2023/05/17 00:35:08;;;;;;;4.73;2.20;;;;;;;;;;5062332;28;20239;-52
2023/05/17 00:37:34;;;;;;;4.93;2.13;;;;;;;;;;5066901;28;20884;-53
2023/05/17 00:40:01;;;;;;;5.87;2.60;;;;;;;;;;5063677;28;20318;-52
2023/05/17 00:42:27;;;;;;;3.40;2.20;;;;;;;;;;5059529;28;20243;-52
2023/05/17 00:44:54;;;;;;;4.63;1.80;;;;;;;;;;5059682;28;20239;-53
2023/05/17 00:47:21;;;;;;;7.87;1.67;;;;;;;;;;5065254;28;20242;-53
2023/05/17 00:49:49;;;;;;;6.07;2.20;;;;;;;;;;5067934;28;20235;-52
2023/05/17 00:52:15;;;;;;;3.50;1.93;;;;;;;;;;5067494;28;20872;-53
2023/05/17 00:54:42;;;;;;;4.47;2.50;;;;;;;;;;5067904;28;20666;-53
2023/05/17 00:57:08;;;;;;;9.43;2.33;;;;;;;;;;5060365;28;20238;-54
2023/05/17 00:59:36;;;;;;;5.63;3.20;;;;;;;;;;5063198;28;20299;-53
2023/05/17 01:02:03;;;;;;;8.13;2.47;;;;;;;;;;5068881;28;20231;-53
2023/05/17 01:04:30;;;;;;;10.20;2.87;;;;;;;;;;5055291;28;20243;-54
2023/05/17 01:06:58;;;;;;;3.63;2.23;;;;;;;;;;5073145;28;20259;-52
2023/05/17 01:09:25;;;;;;;5.20;3.03;;;;;;;;;;5060893;28;20322;-53
2023/05/17 01:11:55;;;;;;;7.47;3.47;;;;;;;;;;5056955;28;20240;-52
2023/05/17 01:14:27;;;;;;;4.97;3.50;;;;;;;;;;5056450;28;20230;-53
2023/05/17 01:16:56;;;;;;;6.57;2.33;;;;;;;;;;5054990;28;20238;-52
2023/05/17 01:19:33;;;;;;;9.03;2.53;;;;;;;;;;5066825;28;20231;-52
2023/05/17 01:22:11;;;;;;;7.43;2.60;;;;;;;;;;5057824;28;20275;-55
2023/05/17 01:24:43;;;;;;;8.33;3.10;;;;;;;;;;5075882;28;20262;-54
2023/05/17 01:27:13;;;;;;;5.50;2.73;;;;;;;;;;5054511;28;20743;-53
2023/05/17 01:29:41;;;;;;;3.70;2.20;;;;;;;;;;5059958;28;20239;-54
2023/05/17 01:32:08;;;;;;;4.13;2.30;;;;;;;;;;5057963;28;20232;-55
2023/05/17 01:34:35;;;;;;;7.37;3.20;;;;;;;;;;5066599;28;20227;-57
2023/05/17 01:37:02;;;;;;;9.10;3.17;;;;;;;;;;5062635;28;20225;-53
2023/05/17 01:39:28;;;;;;;7.57;2.63;;;;;;;;;;5052064;28;20248;-52
2023/05/17 01:41:58;;;;;;;5.07;2.67;;;;;;;;;;5054886;28;20275;-53
2023/05/17 01:44:29;;;;;;;10.70;2.90;;;;;;;;;;5055644;28;20314;-52
2023/05/17 01:47:00;;;;;;;7.37;3.87;;;;;;;;;;5063863;28;20296;-53
2023/05/17 01:49:30;;;;;;;5.40;2.73;;;;;;;;;;5056390;28;20227;-52
2023/05/17 01:51:58;;;;;;;9.30;2.93;;;;;;;;;;5062205;28;20231;-55
2023/05/17 01:54:28;;;;;;;5.00;3.00;;;;;;;;;;5051880;28;20309;-52
2023/05/17 01:56:56;;;;;;;4.77;2.80;;;;;;;;;;5063306;28;20244;-53
2023/05/17 01:59:24;;;;;;;7.57;2.77;;;;;;;;;;5066740;28;20472;-54
2023/05/17 02:01:53;;;;;;;5.27;3.33;;;;;;;;;;5068910;28;20732;-53
2023/05/17 02:04:20;;;;;;;5.13;2.87;;;;;;;;;;5063049;28;20222;-53
2023/05/17 02:06:47;;;;;;;3.23;2.40;;;;;;;;;;5070278;28;20330;-52
2023/05/17 02:09:13;;;;;;;5.83;3.00;;;;;;;;;;5061605;28;20223;-52
2023/05/17 02:11:40;;;;;;;7.50;3.40;;;;;;;;;;5070233;27;20728;-53
2023/05/17 02:14:06;;;;;;;7.63;4.00;;;;;;;;;;5068773;28;20233;-52
2023/05/17 02:16:33;;;;;;;5.13;2.77;;;;;;;;;;5076877;28;20253;-53
2023/05/17 02:19:01;;;;;;;7.60;3.10;;;;;;;;;;5064356;28;20230;-53
2023/05/17 02:21:27;;;;;;;4.80;2.77;;;;;;;;;;5064138;28;20258;-56
2023/05/17 02:23:54;;;;;;;8.27;4.03;;;;;;;;;;5062946;28;20262;-52
2023/05/17 02:26:21;;;;;;;7.47;3.70;;;;;;;;;;5066061;28;20233;-52
2023/05/17 02:28:47;;;;;;;5.67;2.60;;;;;;;;;;5065486;28;20284;-52
2023/05/17 02:31:14;;;;;;;6.10;3.27;;;;;;;;;;5070726;28;20245;-53
2023/05/17 02:33:40;;;;;;;10.57;3.47;;;;;;;;;;5070664;28;20237;-52
2023/05/17 02:36:09;;;;;;;5.10;3.27;;;;;;;;;;5049336;28;20243;-55
2023/05/17 02:38:35;;;;;;;6.47;3.37;;;;;;;;;;5063961;28;20230;-52
2023/05/17 02:41:02;;;;;;;6.03;2.80;;;;;;;;;;5064508;28;20318;-52
2023/05/17 02:43:29;;;;;;;8.30;3.63;;;;;;;;;;5056675;28;20764;-54
2023/05/17 02:45:55;;;;;;;7.37;3.70;;;;;;;;;;5066598;28;20321;-54
2023/05/17 02:48:21;;;;;;;7.20;3.73;;;;;;;;;;5069875;28;20650;-53
2023/05/17 02:50:48;;;;;;;7.77;3.30;;;;;;;;;;5060838;28;20234;-53
2023/05/17 02:53:16;;;;;;;6.27;3.13;;;;;;;;;;5067679;28;20265;-53
2023/05/17 02:55:43;;;;;;;6.93;3.50;;;;;;;;;;5082735;28;20238;-52
2023/05/17 02:58:09;;;;;;;7.63;3.03;;;;;;;;;;5073459;28;20282;-53
2023/05/17 03:00:36;;;;;;;8.97;3.70;;;;;;;;;;5042723;28;20844;-52
2023/05/17 03:03:02;;;;;;;9.73;3.20;;;;;;;;;;5063649;28;20624;-52
2023/05/17 03:05:29;;;;;;;4.07;2.80;;;;;;;;;;5064169;28;20235;-53
2023/05/17 03:07:55;;;;;;;8.20;3.53;;;;;;;;;;5057971;28;20684;-53
2023/05/17 03:10:23;;;;;;;7.23;2.77;;;;;;;;;;5047258;28;20234;-52
2023/05/17 03:12:50;;;;;;;6.33;3.13;;;;;;;;;;5070368;28;20234;-53
2023/05/17 03:15:16;;;;;;;10.17;3.70;;;;;;;;;;5076620;28;20831;-53
2023/05/17 03:17:43;;;;;;;4.43;2.73;;;;;;;;;;5066920;28;20292;-52
2023/05/17 03:20:10;;;;;;;7.60;3.33;;;;;;;;;;5056471;28;20913;-52
2023/05/17 03:22:36;;;;;;;4.10;2.63;;;;;;;;;;5067283;28;20243;-52
2023/05/17 03:25:04;;;;;;;8.37;3.50;;;;;;;;;;5062305;28;20245;-52
2023/05/17 03:27:32;;;;;;;5.77;3.80;;;;;;;;;;5060004;28;20716;-53
2023/05/17 03:29:59;;;;;;;4.90;3.23;;;;;;;;;;5064768;28;20231;-54
2023/05/17 03:32:25;;;;;;;7.47;3.50;;;;;;;;;;5062502;28;20239;-53
2023/05/17 03:34:52;;;;;;;8.60;4.10;;;;;;;;;;5061069;28;20246;-53
2023/05/17 03:37:18;;;;;;;4.90;3.23;;;;;;;;;;5064009;28;20231;-52
2023/05/17 03:39:45;;;;;;;8.13;3.97;;;;;;;;;;5066031;28;20255;-53
2023/05/17 03:42:12;;;;;;;5.97;3.47;;;;;;;;;;5067295;28;20235;-52
2023/05/17 03:44:40;;;;;;;5.13;3.47;;;;;;;;;;5061869;28;20231;-52
2023/05/17 03:47:06;;;;;;;6.40;3.57;;;;;;;;;;5061459;28;20248;-53
2023/05/17 03:49:33;;;;;;;11.33;4.50;;;;;;;;;;5065891;28;20238;-56
2023/05/17 03:52:00;;;;;;;12.67;3.80;;;;;;;;;;5071357;28;20693;-52
2023/05/17 03:54:26;;;;;;;7.73;3.83;;;;;;;;;;5075965;28;20242;-56
2023/05/17 03:56:53;;;;;;;9.60;3.73;;;;;;;;;;5044219;28;20649;-53
2023/05/17 03:59:19;;;;;;;11.60;4.20;;;;;;;;;;5040349;28;20235;-54
2023/05/17 04:01:47;;;;;;;7.33;4.23;;;;;;;;;;5049196;28;20266;-53
2023/05/17 04:04:13;;;;;;;6.10;3.47;;;;;;;;;;5078683;28;20253;-53
2023/05/17 04:06:40;;;;;;;8.50;4.90;;;;;;;;;;5088087;28;20235;-52
2023/05/17 04:09:08;;;;;;;9.73;4.67;;;;;;;;;;5068546;28;20227;-52
2023/05/17 04:11:35;;;;;;;6.63;3.50;;;;;;;;;;5065913;28;20251;-53
2023/05/17 04:14:01;;;;;;;8.67;3.77;;;;;;;;;;5067479;28;20241;-53
2023/05/17 04:16:28;;;;;;;11.13;3.90;;;;;;;;;;5067403;28;20235;-54
2023/05/17 04:18:56;;;;;;;8.93;4.40;;;;;;;;;;5064947;27;20239;-52
2023/05/17 04:21:22;;;;;;;4.57;3.40;;;;;;;;;;5067009;28;20731;-53
2023/05/17 04:23:49;;;;;;;7.00;3.50;;;;;;;;;;5066958;27;20235;-53
2023/05/17 04:26:15;;;;;;;5.90;3.57;;;;;;;;;;5065422;28;20247;-53
2023/05/17 04:28:42;;;;;;;8.37;3.77;;;;;;;;;;5068035;28;20247;-54
2023/05/17 04:31:08;;;;;;;8.90;4.17;;;;;;;;;;5058544;28;20369;-52
2023/05/17 04:33:35;;;;;;;11.27;5.23;;;;;;;;;;5057039;28;20286;-52
2023/05/17 04:36:03;;;;;;;11.27;4.53;;;;;;;;;;5060105;28;20652;-53
2023/05/17 04:38:30;;;;;;;7.10;4.37;;;;;;;;;;5056534;28;20309;-53
2023/05/17 04:41:00;;;;;;;7.93;4.83;;;;;;;;;;5056302;28;20231;-53
2023/05/17 04:43:27;;;;;;;8.27;3.60;;;;;;;;;;5055151;28;20781;-54
2023/05/17 04:45:56;;;;;;;8.63;4.73;;;;;;;;;;5067103;28;20239;-52
2023/05/17 04:48:22;;;;;;;9.47;4.30;;;;;;;;;;5071634;28;20626;-52
2023/05/17 04:50:49;;;;;;;14.07;4.60;;;;;;;;;;5066680;28;20231;-52
2023/05/17 04:53:16;;;;;;;13.87;4.30;;;;;;;;;;5060494;28;20921;-61
2023/05/17 04:55:43;;;;;;;5.00;3.57;;;;;;;;;;5070765;28;20227;-52
2023/05/17 04:58:10;;;;;;;4.93;3.37;;;;;;;;;;5057994;28;20239;-53
2023/05/17 05:00:36;;;;;;;5.53;4.03;;;;;;;;;;5070430;28;20276;-54
2023/05/17 05:03:04;;;;;;;6.33;3.30;;;;;;;;;;5071882;28;20227;-53
2023/05/17 05:05:31;;;;;;;10.17;4.50;;;;;;;;;;5064513;28;20755;-52
2023/05/17 05:07:57;;;;;;;16.50;4.67;;;;;;;;;;5062515;28;20350;-53
2023/05/17 05:10:27;;;;;;;5.47;3.53;;;;;;;;;;5067027;28;20234;-52
2023/05/17 05:12:54;;;;;;;7.97;3.73;;;;;;;;;;5055836;28;20242;-53
2023/05/17 05:15:20;;;;;;;14.37;3.80;;;;;;;;;;5066525;28;20921;-52
2023/05/17 05:17:47;;;;;;;5.37;3.80;;;;;;;;;;5064330;28;20293;-53
2023/05/17 05:20:14;;;;;;;7.50;3.13;;;;;;;;;;5063012;28;20223;-51
2023/05/17 05:22:40;;;;;;;5.83;3.93;;;;;;;;;;5058756;28;20241;-51
2023/05/17 05:25:08;;;;;;;7.27;3.90;;;;;;;;;;5066503;28;22720;-53
2023/05/17 05:27:35;;;;;;;6.97;4.37;;;;;;;;;;5070321;28;20323;-54
2023/05/17 05:30:02;;;;;;;10.57;4.50;;;;;;;;;;5062452;28;20335;-53
2023/05/17 05:32:29;;;;;;;9.13;4.17;;;;;;;;;;5071901;28;20262;-54
2023/05/17 05:34:57;;;;;;;5.17;3.43;;;;;;;;;;5070842;28;20227;-54
2023/05/17 05:37:23;;;;;;;9.03;4.57;;;;;;;;;;5062068;28;20251;-54
2023/05/17 05:39:50;;;;;;;12.00;3.80;;;;;;;;;;5067885;28;20238;-52
2023/05/17 05:42:17;;;;;;;15.07;4.10;;;;;;;;;;5072470;28;20246;-53
2023/05/17 05:44:44;;;;;;;5.97;3.07;;;;;;;;;;5054885;28;20318;-52
2023/05/17 05:47:11;;;;;;;6.60;3.47;;;;;;;;;;5055994;28;20231;-54
2023/05/17 05:49:38;;;;;;;7.20;3.20;;;;;;;;;;5058758;28;20231;-52
2023/05/17 05:52:04;;;;;;;10.30;3.50;;;;;;;;;;5050708;28;20239;-52
2023/05/17 05:54:31;;;;;;;8.87;3.63;;;;;;;;;;5045308;28;20234;-53
2023/05/17 05:56:59;;;;;;;5.80;3.10;;;;;;;;;;5049953;28;20319;-53
2023/05/17 05:59:27;;;;;;;8.87;3.10;;;;;;;;;;5059133;28;20234;-52
2023/05/17 06:01:55;;;;;;;5.40;2.43;;;;;;;;;;5048516;28;20287;-52
2023/05/17 06:04:21;;;;;;;7.27;2.93;;;;;;;;;;5054260;27;20256;-53
2023/05/17 06:06:48;;;;;;;12.90;3.70;;;;;;;;;;5048641;28;20316;-53
2023/05/17 06:09:14;;;;;;;7.37;2.50;;;;;;;;;;5048434;28;21001;-52
2023/05/17 06:11:41;;;;;;;9.23;3.10;;;;;;;;;;5055647;28;20277;-53
2023/05/17 06:14:07;;;;;;;5.77;2.90;;;;;;;;;;5046130;28;20297;-53
2023/05/17 06:16:34;;;;;;;9.73;3.37;;;;;;;;;;5052469;28;20945;-53
2023/05/17 06:19:02;;;;;;;7.47;2.93;;;;;;;;;;5055162;28;20282;-53
2023/05/17 06:21:28;;;;;;;7.03;2.13;;;;;;;;;;5064325;28;20235;-53
2023/05/17 06:23:55;;;;;;;6.03;2.77;;;;;;;;;;5050522;28;20228;-51
2023/05/17 06:26:21;;;;;;;8.30;2.87;;;;;;;;;;5051084;28;20229;-53
2023/05/17 06:28:48;;;;;;;7.10;3.20;;;;;;;;;;5054821;28;20238;-53
2023/05/17 06:31:15;;;;;;;9.30;3.63;;;;;;;;;;5045274;28;20250;-52
2023/05/17 06:33:41;;;;;;;8.87;3.03;;;;;;;;;;5060854;28;20340;-52
2023/05/17 06:36:09;;;;;;;4.70;2.60;;;;;;;;;;5056709;28;20231;-52
2023/05/17 06:38:36;;;;;;;7.17;2.07;;;;;;;;;;5055335;28;20271;-52
2023/05/17 06:41:02;;;;;;;7.47;2.00;;;;;;;;;;5059076;28;20266;-53
2023/05/17 06:43:29;;;;;;;4.60;2.13;;;;;;;;;;5049306;28;20725;-53
2023/05/17 06:45:56;;;;;;;5.80;3.30;;;;;;;;;;5058302;28;20254;-52
2023/05/17 06:48:23;;;;;;;5.50;2.57;;;;;;;;;;5065231;27;20236;-53
2023/05/17 06:50:49;;;;;;;6.17;2.73;;;;;;;;;;5057219;28;20293;-51
2023/05/17 06:53:17;;;;;;;8.47;2.50;;;;;;;;;;5036316;28;20665;-52
2023/05/17 06:55:44;;;;;;;8.70;3.30;;;;;;;;;;5051128;28;20231;-53
2023/05/17 06:58:11;;;;;;;8.37;2.70;;;;;;;;;;5059111;28;20235;-52
2023/05/17 07:00:37;;;;;;;6.73;1.87;;;;;;;;;;5059524;28;20246;-52
2023/05/17 07:03:04;;;;;;;6.87;2.50;;;;;;;;;;5054721;27;20254;-52
2023/05/17 07:05:30;;;;;;;3.60;1.97;;;;;;;;;;5054453;28;20235;-52
2023/05/17 07:07:57;;;;;;;8.07;2.20;;;;;;;;;;5055272;28;20231;-52
2023/05/17 07:10:25;;;;;;;4.37;1.80;;;;;;;;;;5061484;28;20231;-52
2023/05/17 07:12:52;;;;;;;5.03;2.10;;;;;;;;;;5055104;28;20882;-54
2023/05/17 07:15:18;;;;;;;8.70;2.90;;;;;;;;;;5056680;28;20239;-52
2023/05/17 07:17:45;;;;;;;9.73;3.40;;;;;;;;;;5059397;28;20235;-52
2023/05/17 07:20:13;;;;;;;8.67;2.80;;;;;;;;;;5054644;28;20235;-51
2023/05/17 07:22:40;;;;;;;7.47;2.93;;;;;;;;;;5059398;28;20239;-52
2023/05/17 07:25:07;;;;;;;9.50;2.33;;;;;;;;;;5044941;28;20236;-52
2023/05/17 07:27:35;;;;;;;6.77;2.60;;;;;;;;;;5062155;28;20300;-53
2023/05/17 07:30:02;;;;;;;6.27;2.20;;;;;;;;;;5061710;28;20229;-52
2023/05/17 07:32:29;;;;;;;7.20;2.37;;;;;;;;;;5048388;28;20706;-51
2023/05/17 07:34:56;;;;;;;5.67;2.67;;;;;;;;;;5061774;28;20652;-53
2023/05/17 07:37:22;;;;;;;8.57;2.53;;;;;;;;;;5060934;28;20466;-52
2023/05/17 07:39:49;;;;;;;6.47;2.22;;;;;;;;;;5055227;28;20236;-53
2023/05/17 07:42:16;;;;;;;7.43;2.40;;;;;;;;;;5053645;28;20239;-55
2023/05/17 07:44:44;;;;;;;4.22;2.13;;;;;;;;;;5062673;28;20761;-52
2023/05/17 07:47:10;;;;;;;6.57;2.10;;;;;;;;;;5051244;28;20294;-53
2023/05/17 07:49:37;;;;;;;7.45;1.80;;;;;;;;;;5062927;28;20242;-52
2023/05/17 07:52:03;;;;;;;6.53;2.50;;;;;;;;;;5066287;28;20353;-52
2023/05/17 07:54:30;;;;;;;10.18;2.13;;;;;;;;;;5055043;28;20250;-52
2023/05/17 07:56:58;;;;;;;9.88;2.85;;;;;;;;;;5052929;28;20460;-52
2023/05/17 07:59:25;;;;;;;6.75;2.88;;;;;;;;;;5058322;28;20253;-53
2023/05/17 08:01:54;;;;;;;7.50;1.83;;;;;;;;;;5042199;28;20244;-53
2023/05/17 08:04:22;;;;;;;10.18;2.55;;;;;;;;;;5053124;28;20227;-53
2023/05/17 08:06:49;;;;;;;7.22;1.73;;;;;;;;;;5056773;28;20228;-52
2023/05/17 08:09:16;;;;;;;6.63;2.45;;;;;;;;;;5052809;28;20228;-55
2023/05/17 08:11:44;;;;;;;7.35;2.28;;;;;;;;;;5051431;28;20228;-52
2023/05/17 08:14:11;;;;;;;10.15;2.22;;;;;;;;;;5053783;28;20227;-53
2023/05/17 08:16:37;;;;;;;8.95;2.10;;;;;;;;;;5051543;28;20227;-53
2023/05/17 08:19:05;;;;;;;6.10;2.05;;;;;;;;;;5055845;28;20334;-52
2023/05/17 08:21:32;;;;;;;7.13;2.70;;;;;;;;;;5063353;28;20231;-53
2023/05/17 08:23:58;;;;;;;4.93;1.85;;;;;;;;;;5055177;28;20290;-56
2023/05/17 08:26:24;;;;;;;9.38;3.13;;;;;;;;;;5055079;28;20232;-52
2023/05/17 08:28:51;;;;;;;6.00;2.95;;;;;;;;;;5052441;28;20240;-53
2023/05/17 08:31:17;;;;;;;4.97;2.85;;;;;;;;;;5056843;28;20991;-53
2023/05/17 08:33:43;;;;;;;5.72;2.05;;;;;;;;;;5048781;28;20338;-52
2023/05/17 08:36:11;;;;;;;3.50;2.13;;;;;;;;;;5063873;28;20288;-52
2023/05/17 08:38:37;;;;;;;5.20;2.80;;;;;;;;;;5056925;28;20231;-52
2023/05/17 08:41:04;;;;;;;5.93;2.67;;;;;;;;;;5067249;28;20294;-51
2023/05/17 08:43:31;;;;;;;9.45;2.80;;;;;;;;;;5058022;28;20615;-52
2023/05/17 08:45:58;;;;;;;5.00;2.25;;;;;;;;;;5055279;28;20290;-53
2023/05/17 08:48:25;;;;;;;9.45;2.50;;;;;;;;;;5060033;28;20244;-52
2023/05/17 08:50:53;;;;;;;10.02;2.95;;;;;;;;;;5052105;28;20236;-51
2023/05/17 08:53:20;;;;;;;5.50;2.40;;;;;;;;;;5052969;28;20298;-56
2023/05/17 08:55:47;;;;;;;8.00;1.98;;;;;;;;;;5058068;28;20936;-52
2023/05/17 08:58:15;;;;;;;3.30;2.25;;;;;;;;;;5067970;28;20599;-52
2023/05/17 09:00:42;;;;;;;6.13;2.20;;;;;;;;;;5069707;28;20231;-52
2023/05/17 09:03:09;;;;;;;5.78;1.95;;;;;;;;;;5069265;28;20327;-53
2023/05/17 09:05:36;;;;;;;7.15;2.35;;;;;;;;;;5068672;28;20318;-52
2023/05/17 09:08:03;;;;;;;6.63;1.85;;;;;;;;;;5060552;28;20241;-52
2023/05/17 09:10:30;;;;;;;6.22;2.33;;;;;;;;;;5053640;28;20698;-52
2023/05/17 09:12:57;;;;;;;7.10;2.22;;;;;;;;;;5063540;28;20674;-54
2023/05/17 09:15:25;;;;;;;5.40;2.15;;;;;;;;;;5059542;28;20274;-52
2023/05/17 09:17:52;;;;;;;6.82;2.00;;;;;;;;;;5056733;28;20783;-52
2023/05/17 09:20:23;;;;;;;4.68;1.85;;;;;;;;;;5042705;28;20232;-52
2023/05/17 09:22:50;;;;;;;4.72;1.60;;;;;;;;;;5058924;28;21926;-53
2023/05/17 09:25:19;;;;;;;8.85;2.50;;;;;;;;;;5059026;28;20614;-55
2023/05/17 09:27:46;;;;;;;11.27;2.20;;;;;;;;;;5052237;28;20833;-53
2023/05/17 09:30:13;;;;;;;7.80;2.47;;;;;;;;;;5060437;28;20227;-52
2023/05/17 09:32:44;;;;;;;5.05;1.65;;;;;;;;;;5060795;28;20465;-51
2023/05/17 09:35:10;;;;;;;6.85;2.65;;;;;;;;;;5051396;28;20235;-54
2023/05/17 09:37:37;;;;;;;5.82;2.30;;;;;;;;;;5059265;28;20241;-52
2023/05/17 09:40:05;;;;;;;8.70;2.72;;;;;;;;;;5062759;28;20254;-53
2023/05/17 09:42:35;;;;;;;5.57;1.98;;;;;;;;;;5055546;28;20326;-53
2023/05/17 09:45:03;;;;;;;5.93;2.20;;;;;;;;;;5047848;28;20231;-52
2023/05/17 09:47:32;;;;;;;7.63;1.98;;;;;;;;;;5054286;28;20227;-53
2023/05/17 09:50:02;;;;;;;4.00;2.10;;;;;;;;;;5061862;28;20793;-53
2023/05/17 09:52:30;;;;;;;5.68;1.85;;;;;;;;;;5056232;28;20830;-53
2023/05/17 09:54:57;;;;;;;4.35;1.95;;;;;;;;;;5063550;28;20344;-52
2023/05/17 09:57:25;;;;;;;4.18;1.83;;;;;;;;;;5046901;28;20318;-52
2023/05/17 09:59:54;;;;;;;6.38;2.45;;;;;;;;;;5059668;28;20239;-52
2023/05/17 10:02:22;;;;;;;2.40;1.77;;;;;;;;;;5052021;28;20838;-51
2023/05/17 10:04:50;;;;;;;5.93;2.80;;;;;;;;;;5062768;28;20314;-53
2023/05/17 10:07:19;;;;;;;7.40;2.10;;;;;;;;;;5058132;28;20235;-54
2023/05/17 10:09:46;;;;;;;5.22;2.10;;;;;;;;;;5061509;28;20246;-53
2023/05/17 10:12:14;;;;;;;4.95;1.58;;;;;;;;;;5054847;28;20246;-53
2023/05/17 10:14:42;;;;;;;8.70;1.77;;;;;;;;;;5053185;28;20234;-52
2023/05/17 10:17:10;;;;;;;9.32;2.10;;;;;;;;;;5056727;28;20226;-52
2023/05/17 10:19:38;;;;;;;6.95;2.33;;;;;;;;;;5060000;28;20259;-52
2023/05/17 10:22:05;;;;;;;6.13;1.77;;;;;;;;;;5055665;28;20235;-54
2023/05/17 10:24:32;;;;;;;6.15;1.60;;;;;;;;;;5055404;28;20319;-53
2023/05/17 10:26:59;;;;;;;8.00;1.75;;;;;;;;;;5055565;28;20236;-54
2023/05/17 10:29:26;;;;;;;3.95;1.63;;;;;;;;;;5051771;28;20236;-52
2023/05/17 10:31:52;;;;;;;4.72;1.45;;;;;;;;;;5053569;28;20236;-53
2023/05/17 10:34:19;;;;;;;7.45;2.30;;;;;;;;;;5057632;28;20233;-52
2023/05/17 10:36:48;;;;;;;7.60;2.05;;;;;;;;;;5058570;28;20289;-52
2023/05/17 10:39:15;;;;;;;5.80;1.52;;;;;;;;;;5056237;28;20310;-52
2023/05/17 10:41:43;;;;;;;8.10;2.05;;;;;;;;;;5052624;28;20267;-52
2023/05/17 10:44:12;;;;;;;8.50;1.80;;;;;;;;;;5055490;28;20364;-53
2023/05/17 10:46:38;;;;;;;7.65;2.30;;;;;;;;;;5050421;28;20788;-54
2023/05/17 10:49:05;;;;;;;3.67;1.45;;;;;;;;;;5043320;28;20253;-53
2023/05/17 10:51:32;;;;;;;3.53;1.42;;;;;;;;;;5061670;28;20299;-52
2023/05/17 10:54:10;;;;;;;6.68;1.98;;;;;;;;;;5055344;28;20610;-55
2023/05/17 10:56:39;;;;;;;5.40;1.73;;;;;;;;;;5071427;28;20238;-54
2023/05/17 10:59:15;;;;;;;6.05;1.70;;;;;;;;;;5067932;28;20239;-54
2023/05/17 11:01:51;;;;;;;7.30;2.10;;;;;;;;;;5062513;28;20357;-53
2023/05/17 11:04:22;;;;;;;7.53;2.15;;;;;;;;;;5054410;28;20658;-58
2023/05/17 11:06:48;;;;;;;4.25;1.80;;;;;;;;;;5057645;28;20272;-54
2023/05/17 11:09:17;;;;;;;8.02;2.05;;;;;;;;;;5058209;28;20308;-54
2023/05/17 11:12:02;;;;;;;4.05;1.63;;;;;;;;;;5054849;28;20242;-51
2023/05/17 11:14:42;;;;;;;3.35;2.00;;;;;;;;;;5051426;28;20708;-51
2023/05/17 11:17:12;;;;;;;5.63;1.70;;;;;;;;;;5052875;28;20231;-53
2023/05/17 11:19:38;;;;;;;7.30;1.70;;;;;;;;;;5047029;28;20231;-52
2023/05/17 11:22:10;;;;;;;5.28;1.80;;;;;;;;;;5055863;28;20317;-53
2023/05/17 11:24:40;;;;;;;5.68;2.00;;;;;;;;;;5047845;28;20241;-52
2023/05/17 11:27:07;;;;;;;5.38;1.70;;;;;;;;;;5054699;28;21034;-53
2023/05/17 11:29:34;;;;;;;12.80;2.70;;;;;;;;;;5052360;28;20247;-54
2023/05/17 11:32:05;;;;;;;7.57;2.28;;;;;;;;;;5052142;28;20777;-53
2023/05/17 11:34:33;;;;;;;6.90;2.15;;;;;;;;;;5050902;28;20239;-52
2023/05/17 11:36:59;;;;;;;8.40;2.80;;;;;;;;;;5052071;28;20228;-53
2023/05/17 11:39:26;;;;;;;16.20;2.85;;;;;;;;;;5053551;28;20238;-54
2023/05/17 11:41:55;;;;;;;5.50;2.38;;;;;;;;;;5052333;28;20345;-52
2023/05/17 11:44:24;;;;;;;4.22;1.90;;;;;;;;;;5061041;28;20231;-52
2023/05/17 11:46:50;;;;;;;7.13;2.05;;;;;;;;;;5049988;28;20278;-53
2023/05/17 11:49:17;;;;;;;8.30;1.73;;;;;;;;;;5049508;28;20231;-52
2023/05/17 11:51:45;;;;;;;9.13;2.22;;;;;;;;;;5054789;28;20757;-52
2023/05/17 11:54:13;;;;;;;2.70;1.30;;;;;;;;;;5057194;28;20241;-52
2023/05/17 11:56:39;;;;;;;8.93;1.58;;;;;;;;;;5050308;28;20235;-52
2023/05/17 11:59:07;;;;;;;5.47;2.25;;;;;;;;;;5050225;28;20318;-52
2023/05/17 12:01:44;;;;;;;6.20;2.42;;;;;;;;;;5060162;28;20235;-53
2023/05/17 12:04:11;;;;;;;8.10;1.77;;;;;;;;;;5049610;28;20226;-52
2023/05/17 12:06:37;;;;;;;6.00;2.28;;;;;;;;;;5055991;28;20713;-52
2023/05/17 12:09:05;;;;;;;5.00;1.85;;;;;;;;;;5055295;28;20597;-52
2023/05/17 12:11:31;;;;;;;4.53;1.85;;;;;;;;;;5056888;28;20239;-52
2023/05/17 12:13:57;;;;;;;5.95;2.50;;;;;;;;;;5056200;28;20315;-54
2023/05/17 12:16:26;;;;;;;6.45;1.98;;;;;;;;;;5055260;28;20777;-54
2023/05/17 12:18:52;;;;;;;6.45;2.17;;;;;;;;;;5058690;28;20323;-52
2023/05/17 12:21:20;;;;;;;7.80;2.13;;;;;;;;;;5050168;28;20266;-54
2023/05/17 12:23:47;;;;;;;4.93;2.17;;;;;;;;;;5059567;28;20311;-53
2023/05/17 12:26:14;;;;;;;5.63;2.10;;;;;;;;;;5061760;27;20325;-52
2023/05/17 12:28:41;;;;;;;6.53;2.55;;;;;;;;;;5061333;27;20326;-53
2023/05/17 12:31:08;;;;;;;4.00;2.15;;;;;;;;;;5061745;27;20250;-52
2023/05/17 12:33:38;;;;;;;5.53;2.40;;;;;;;;;;5068973;27;20257;-51
2023/05/17 12:36:05;;;;;;;4.85;1.67;;;;;;;;;;5057777;28;20250;-52
2023/05/17 12:38:32;;;;;;;6.05;1.83;;;;;;;;;;5062315;28;20227;-53
2023/05/17 12:41:00;;;;;;;6.88;2.35;;;;;;;;;;5054282;28;20311;-51
2023/05/17 12:43:27;;;;;;;4.35;1.98;;;;;;;;;;5051946;28;20231;-52
2023/05/17 12:45:53;;;;;;;7.72;2.22;;;;;;;;;;5058934;28;20293;-54
2023/05/17 12:48:24;;;;;;;10.90;2.05;;;;;;;;;;5053053;28;20240;-52
2023/05/17 12:50:54;;;;;;;7.22;2.13;;;;;;;;;;5050968;28;20247;-53
2023/05/17 12:53:21;;;;;;;5.35;2.03;;;;;;;;;;5065165;28;20254;-52
2023/05/17 12:55:47;;;;;;;3.90;1.85;;;;;;;;;;5055544;28;20237;-56
2023/05/17 12:58:14;;;;;;;6.68;2.30;;;;;;;;;;5055228;28;20231;-52
2023/05/17 13:00:40;;;;;;;7.63;1.90;;;;;;;;;;5058364;28;20230;-53
2023/05/17 13:03:09;;;;;;;3.53;1.98;;;;;;;;;;5061045;28;20227;-51
2023/05/17 13:05:35;;;;;;;7.07;1.80;;;;;;;;;;5057818;28;20235;-53
2023/05/17 13:08:17;;;;;;;3.28;1.80;;;;;;;;;;5065772;28;20232;-54
2023/05/17 13:10:44;;;;;;;8.13;2.10;;;;;;;;;;5060190;27;20254;-52
2023/05/17 13:13:17;;;;;;;4.07;2.38;;;;;;;;;;5061564;27;20708;-53
2023/05/17 13:15:45;;;;;;;6.20;1.77;;;;;;;;;;5066007;28;20326;-53
2023/05/17 13:18:12;;;;;;;4.68;2.03;;;;;;;;;;5059369;28;20236;-52
2023/05/17 13:20:38;;;;;;;4.10;1.92;;;;;;;;;;5057116;28;20609;-53
2023/05/17 13:23:05;;;;;;;8.20;2.15;;;;;;;;;;5059350;28;20606;-53
2023/05/17 13:25:32;;;;;;;9.40;2.15;;;;;;;;;;5052382;28;20315;-54
2023/05/17 13:28:01;;;;;;;8.05;2.15;;;;;;;;;;5051351;28;20322;-56
2023/05/17 13:30:27;;;;;;;4.97;1.95;;;;;;;;;;5057184;28;20714;-52
2023/05/17 13:32:54;;;;;;;5.85;1.67;;;;;;;;;;5052441;28;20787;-53
2023/05/17 13:35:21;;;;;;;4.85;1.65;;;;;;;;;;5048492;28;20259;-52
2023/05/17 13:37:47;;;;;;;6.20;1.98;;;;;;;;;;5061085;28;20259;-58
2023/05/17 13:40:14;;;;;;;6.63;2.10;;;;;;;;;;5062559;28;20223;-52
2023/05/17 13:42:41;;;;;;;3.72;1.73;;;;;;;;;;5060446;28;20262;-53
2023/05/17 13:45:10;;;;;;;5.05;1.70;;;;;;;;;;5065071;28;20990;-54
2023/05/17 13:47:36;;;;;;;8.90;1.75;;;;;;;;;;5061302;28;20285;-54
2023/05/17 13:50:03;;;;;;;9.93;2.38;;;;;;;;;;5060144;28;20231;-52
2023/05/17 13:52:30;;;;;;;6.90;2.13;;;;;;;;;;5050566;28;20250;-52
2023/05/17 13:54:56;;;;;;;7.22;2.60;;;;;;;;;;5057454;28;20235;-53
2023/05/17 13:57:22;;;;;;;4.72;2.28;;;;;;;;;;5056414;28;20223;-54
2023/05/17 13:59:49;;;;;;;7.63;2.33;;;;;;;;;;5055469;28;20235;-53
2023/05/17 14:02:17;;;;;;;8.63;1.98;;;;;;;;;;5065228;28;20231;-52
2023/05/17 14:04:43;;;;;;;6.40;2.65;;;;;;;;;;5056387;28;20227;-53
2023/05/17 14:07:09;;;;;;;7.68;2.38;;;;;;;;;;5056099;28;20241;-54
2023/05/17 14:09:36;;;;;;;3.85;2.63;;;;;;;;;;5060125;28;20305;-53
2023/05/17 14:12:02;;;;;;;4.90;1.63;;;;;;;;;;5058498;28;20716;-54
2023/05/17 14:14:29;;;;;;;6.22;1.88;;;;;;;;;;5050229;28;20311;-53
2023/05/17 14:16:56;;;;;;;6.35;2.25;;;;;;;;;;5059206;28;20284;-53
2023/05/17 14:19:24;;;;;;;7.95;2.78;;;;;;;;;;5057784;28;20254;-52
2023/05/17 14:21:50;;;;;;;3.28;1.90;;;;;;;;;;5061611;28;20932;-54
2023/05/17 14:24:16;;;;;;;4.93;1.77;;;;;;;;;;5055909;28;20322;-52
2023/05/17 14:26:43;;;;;;;5.95;2.08;;;;;;;;;;5050945;28;20329;-54
2023/05/17 14:29:09;;;;;;;5.13;2.13;;;;;;;;;;5052604;28;20282;-53
2023/05/17 14:31:36;;;;;;;3.80;1.42;;;;;;;;;;5056059;28;20288;-52
2023/05/17 14:34:02;;;;;;;6.32;1.92;;;;;;;;;;5062236;28;20235;-52
2023/05/17 14:36:30;;;;;;;5.97;2.00;;;;;;;;;;5055294;28;20237;-51
2023/05/17 14:38:58;;;;;;;7.03;2.03;;;;;;;;;;5058466;28;20328;-53
2023/05/17 14:41:24;;;;;;;5.95;2.17;;;;;;;;;;5057645;28;20285;-53
2023/05/17 14:43:50;;;;;;;5.82;2.13;;;;;;;;;;5062528;28;20231;-55